createdAt,value
2022-08-29T00:01:56.853Z,87.53
2022-08-29T00:04:26.378Z,87.38
2022-08-29T00:06:56.412Z,87.31
2022-08-29T00:09:28.406Z,87.63
2022-08-29T00:11:56.892Z,88.23
2022-08-29T00:14:27.214Z,88.00
2022-08-29T00:16:58.158Z,88.04
2022-08-29T00:19:25.766Z,87.94
2022-08-29T00:21:56.503Z,88.35
2022-08-29T00:24:26.253Z,88.78
2022-08-29T00:26:56.687Z,88.25
2022-08-29T00:29:26.238Z,88.53
2022-08-29T00:31:56.063Z,89.29
2022-08-29T00:34:26.495Z,91.10
2022-08-29T00:36:56.098Z,91.66
2022-08-29T00:39:27.216Z,92.73
2022-08-29T00:41:57.933Z,91.66
2022-08-29T00:44:25.780Z,92.06
2022-08-29T00:46:59.852Z,91.33
2022-08-29T00:49:51.080Z,92.08
2022-08-29T00:52:40.040Z,91.99
2022-08-29T00:55:14.173Z,91.79
2022-08-29T00:57:49.822Z,90.76
2022-08-29T01:00:19.350Z,89.60
2022-08-29T01:02:50.873Z,88.83
2022-08-29T01:05:20.130Z,88.49
2022-08-29T01:07:50.484Z,88.66
2022-08-29T01:10:44.572Z,88.82
2022-08-29T01:13:20.996Z,89.96
2022-08-29T01:15:58.989Z,89.33
2022-08-29T01:18:35.133Z,90.10
2022-08-29T01:21:40.258Z,89.29
2022-08-29T01:24:35.963Z,88.40
2022-08-29T01:27:04.660Z,87.86
2022-08-29T01:29:32.103Z,87.76
2022-08-29T01:32:00.616Z,87.96
2022-08-29T01:34:30.096Z,87.64
2022-08-29T01:37:03.960Z,87.43
2022-08-29T01:42:06.980Z,86.75
2022-08-29T01:44:36.083Z,86.72
2022-08-29T01:47:06.096Z,86.97
2022-08-29T01:49:37.877Z,87.58
2022-08-29T01:52:10.256Z,87.17
2022-08-29T01:54:38.150Z,87.17
2022-08-29T01:57:12.821Z,87.41
2022-08-29T01:59:44.373Z,86.69
2022-08-29T02:02:31.917Z,86.29
2022-08-29T02:05:00.866Z,86.08
2022-08-29T02:07:30.350Z,86.20
2022-08-29T02:10:00.091Z,86.35
2022-08-29T02:12:38.983Z,86.31
2022-08-29T02:15:10.422Z,86.01
2022-08-29T02:17:41.453Z,86.30
2022-08-29T02:20:13.963Z,86.68
2022-08-29T02:22:41.241Z,85.94
2022-08-29T02:25:33.373Z,85.95
2022-08-29T02:28:03.183Z,87.01
2022-08-29T02:30:31.660Z,87.23
2022-08-29T02:32:59.225Z,87.90
2022-08-29T02:35:31.211Z,88.07
2022-08-29T02:38:03.382Z,87.65
2022-08-29T02:40:33.123Z,87.88
2022-08-29T02:43:04.985Z,87.98
2022-08-29T02:45:34.871Z,88.15
2022-08-29T02:48:04.174Z,88.48
2022-08-29T02:50:31.919Z,88.53
2022-08-29T02:53:09.532Z,88.54
2022-08-29T02:55:36.651Z,89.01
2022-08-29T02:58:06.009Z,89.01
2022-08-29T03:00:36.148Z,89.04
2022-08-29T03:03:05.530Z,88.73
2022-08-29T03:05:40.199Z,88.69
2022-08-29T03:08:11.593Z,87.99
2022-08-29T03:10:40.012Z,88.32
2022-08-29T03:13:07.138Z,88.75
2022-08-29T03:15:39.661Z,88.53
2022-08-29T03:18:08.398Z,88.91
2022-08-29T03:20:39.614Z,89.33
2022-08-29T03:23:10.333Z,89.70
2022-08-29T03:25:40.977Z,89.45
2022-08-29T03:28:11.293Z,89.46
2022-08-29T03:30:40.584Z,89.91
2022-08-29T03:33:12.123Z,90.21
2022-08-29T03:35:41.060Z,89.95
2022-08-29T03:38:08.250Z,89.93
2022-08-29T03:40:37.601Z,89.55
2022-08-29T03:43:05.010Z,90.49
2022-08-29T03:45:35.375Z,90.08
2022-08-29T03:48:06.174Z,89.64
2022-08-29T03:50:37.202Z,89.51
2022-08-29T03:53:04.495Z,89.74
2022-08-29T03:55:32.220Z,90.89
2022-08-29T03:58:03.138Z,90.08
2022-08-29T04:00:33.651Z,90.48
2022-08-29T04:03:01.442Z,90.32
2022-08-29T04:05:28.932Z,90.37
2022-08-29T04:08:00.695Z,89.84
2022-08-29T04:10:35.612Z,89.46
2022-08-29T04:13:10.750Z,90.12
2022-08-29T04:15:41.745Z,91.53
2022-08-29T04:18:12.253Z,92.15
2022-08-29T04:20:45.159Z,91.47
2022-08-29T04:23:14.583Z,90.80
2022-08-29T04:25:45.851Z,90.47
2022-08-29T04:28:15.142Z,89.09
2022-08-29T04:30:51.534Z,89.18
2022-08-29T04:33:26.782Z,89.22
2022-08-29T04:35:56.490Z,89.42
2022-08-29T04:38:26.816Z,89.42
2022-08-29T04:40:55.133Z,89.33
2022-08-29T04:43:22.210Z,89.55
2022-08-29T04:45:55.795Z,89.74
2022-08-29T04:48:25.291Z,90.83
2022-08-29T04:50:58.960Z,92.38
2022-08-29T04:53:29.690Z,92.31
2022-08-29T04:56:19.681Z,92.47
2022-08-29T04:58:49.873Z,91.78
2022-08-29T05:01:27.242Z,91.92
2022-08-29T05:03:56.894Z,91.39
2022-08-29T05:06:26.683Z,90.92
2022-08-29T05:08:59.390Z,90.87
2022-08-29T05:11:35.293Z,91.01
2022-08-29T05:14:05.578Z,91.48
2022-08-29T05:16:37.635Z,91.55
2022-08-29T05:19:16.116Z,91.90
2022-08-29T05:21:45.525Z,91.83
2022-08-29T05:24:14.728Z,90.81
2022-08-29T05:26:45.497Z,89.62
2022-08-29T05:29:14.722Z,89.40
2022-08-29T05:31:47.144Z,89.39
2022-08-29T05:34:34.618Z,90.15
2022-08-29T05:37:26.744Z,90.28
2022-08-29T05:39:56.375Z,90.61
2022-08-29T05:42:26.635Z,91.15
2022-08-29T05:44:55.711Z,91.00
2022-08-29T05:47:26.034Z,90.25
2022-08-29T05:49:57.235Z,89.95
2022-08-29T05:52:29.647Z,90.39
2022-08-29T05:55:00.095Z,90.36
2022-08-29T05:57:30.092Z,90.04
2022-08-29T06:00:00.419Z,89.29
2022-08-29T06:02:31.134Z,89.28
2022-08-29T06:04:59.500Z,88.42
2022-08-29T06:07:27.389Z,88.30
2022-08-29T06:10:00.393Z,88.10
2022-08-29T06:12:32.637Z,86.66
2022-08-29T06:15:03.740Z,85.92
2022-08-29T06:17:33.847Z,85.42
2022-08-29T06:20:03.238Z,85.69
2022-08-29T06:22:30.257Z,84.66
2022-08-29T06:25:00.281Z,85.26
2022-08-29T06:27:32.785Z,85.47
2022-08-29T06:30:03.373Z,85.85
2022-08-29T06:32:33.785Z,85.44
2022-08-29T06:35:05.397Z,85.33
2022-08-29T06:37:35.915Z,84.36
2022-08-29T06:40:07.459Z,83.98
2022-08-29T06:42:39.463Z,83.97
2022-08-29T06:45:09.950Z,83.61
2022-08-29T06:47:37.064Z,82.77
2022-08-29T06:50:06.704Z,80.91
2022-08-29T06:52:35.643Z,81.37
2022-08-29T06:55:12.102Z,81.53
2022-08-29T06:57:44.903Z,81.97
2022-08-29T07:00:21.996Z,80.27
2022-08-29T07:03:01.961Z,80.42
2022-08-29T07:05:30.776Z,78.92
2022-08-29T07:08:01.087Z,81.52
2022-08-29T07:10:38.199Z,78.13
2022-08-29T07:13:05.378Z,73.40
2022-08-29T07:15:35.694Z,74.05
2022-08-29T07:18:06.334Z,72.32
2022-08-29T07:20:36.048Z,72.60
2022-08-29T07:23:03.516Z,72.61
2022-08-29T07:25:33.397Z,69.59
2022-08-29T07:28:07.140Z,68.29
2022-08-29T07:30:37.807Z,67.80
2022-08-29T07:33:05.429Z,68.65
2022-08-29T07:35:34.863Z,66.75
2022-08-29T07:38:05.396Z,68.11
2022-08-29T07:40:32.636Z,70.56
2022-08-29T07:43:02.429Z,70.30
2022-08-29T07:45:30.783Z,69.83
2022-08-29T07:47:59.782Z,63.86
2022-08-29T07:50:37.293Z,64.33
2022-08-29T07:53:07.923Z,64.85
2022-08-29T07:55:39.926Z,61.66
2022-08-29T07:58:10.584Z,62.16
2022-08-29T08:00:39.086Z,60.06
2022-08-29T08:03:10.701Z,58.48
2022-08-29T08:05:39.370Z,58.40
2022-08-29T08:08:14.995Z,58.98
2022-08-29T08:10:50.084Z,57.74
2022-08-29T08:13:20.452Z,58.78
2022-08-29T08:15:50.397Z,59.05
2022-08-29T08:18:17.415Z,56.93
2022-08-29T08:20:50.996Z,58.47
2022-08-29T08:23:19.542Z,58.87
2022-08-29T08:25:46.983Z,59.12
2022-08-29T08:28:19.089Z,60.21
2022-08-29T08:30:46.463Z,59.94
2022-08-29T08:33:16.574Z,59.97
2022-08-29T08:35:50.253Z,59.63
2022-08-29T08:38:18.023Z,57.69
2022-08-29T08:41:16.427Z,58.23
2022-08-29T08:44:00.036Z,56.95
2022-08-29T08:46:54.728Z,57.15
2022-08-29T08:50:00.254Z,59.07
2022-08-29T08:52:59.689Z,56.84
2022-08-29T08:55:48.011Z,55.56
2022-08-29T08:58:28.744Z,52.97
2022-08-29T09:01:41.603Z,54.25
2022-08-29T09:04:19.983Z,53.52
2022-08-29T09:07:05.293Z,54.59
2022-08-29T09:10:09.723Z,53.58
2022-08-29T09:13:15.033Z,53.82
2022-08-29T09:15:50.102Z,54.29
2022-08-29T09:18:53.909Z,52.91
2022-08-29T09:21:42.184Z,54.67
2022-08-29T09:24:25.649Z,53.81
2022-08-29T09:26:56.071Z,51.93
2022-08-29T09:29:31.689Z,51.68
2022-08-29T09:32:21.615Z,53.47
2022-08-29T09:35:08.017Z,52.44
2022-08-29T09:37:37.817Z,50.61
2022-08-29T09:40:16.787Z,51.03
2022-08-29T09:43:03.447Z,49.79
2022-08-29T09:45:33.994Z,49.89
2022-08-29T09:48:20.616Z,49.67
2022-08-29T09:50:50.319Z,51.16
2022-08-29T09:53:26.225Z,50.77
2022-08-29T09:55:55.455Z,50.03
2022-08-29T09:58:22.660Z,52.29
2022-08-29T10:01:17.886Z,51.65
2022-08-29T10:04:05.734Z,52.50
2022-08-29T10:06:45.205Z,51.36
2022-08-29T10:09:35.493Z,51.46
2022-08-29T10:12:14.096Z,51.26
2022-08-29T10:14:57.309Z,49.32
2022-08-29T10:17:56.647Z,48.63
2022-08-29T10:20:36.190Z,50.55
2022-08-29T10:23:15.734Z,49.13
2022-08-29T10:25:44.181Z,47.53
2022-08-29T10:28:51.685Z,47.17
2022-08-29T10:31:57.155Z,48.98
2022-08-29T10:35:17.513Z,50.88
2022-08-29T10:38:25.519Z,46.61
2022-08-29T10:41:50.605Z,44.77
2022-08-29T10:44:39.390Z,46.99
2022-08-29T10:47:39.274Z,46.15
2022-08-29T10:50:56.375Z,43.86
2022-08-29T10:53:34.535Z,42.40
2022-08-29T10:56:27.978Z,41.31
2022-08-29T10:59:27.497Z,42.50
2022-08-29T11:02:17.178Z,43.72
2022-08-29T11:04:56.860Z,43.66
2022-08-29T11:07:45.338Z,44.91
2022-08-29T11:10:25.759Z,43.53
2022-08-29T11:13:07.280Z,44.77
2022-08-29T11:16:00.366Z,43.55
2022-08-29T11:19:06.428Z,43.00
2022-08-29T11:21:56.795Z,43.52
2022-08-29T11:24:35.053Z,46.51
2022-08-29T11:27:34.685Z,45.46
2022-08-29T11:30:20.449Z,41.68
2022-08-29T11:33:14.745Z,40.28
2022-08-29T11:36:05.314Z,38.86
2022-08-29T11:39:15.952Z,42.08
2022-08-29T11:41:50.081Z,40.32
2022-08-29T11:44:30.817Z,41.60
2022-08-29T11:47:00.130Z,40.34
2022-08-29T11:49:39.311Z,40.68
2022-08-29T11:52:17.752Z,39.62
2022-08-29T11:55:16.244Z,40.61
2022-08-29T11:57:52.439Z,39.57
2022-08-29T12:00:54.038Z,40.33
2022-08-29T12:03:40.105Z,40.84
2022-08-29T12:06:25.853Z,38.86
2022-08-29T12:09:25.627Z,41.78
2022-08-29T12:12:37.143Z,39.40
2022-08-29T12:15:24.869Z,40.04
2022-08-29T12:18:06.658Z,42.34
2022-08-29T12:20:42.397Z,44.23
2022-08-29T12:23:15.854Z,46.21
2022-08-29T12:26:22.813Z,48.12
2022-08-29T12:29:02.526Z,49.21
2022-08-29T12:32:18.683Z,50.78
2022-08-29T12:35:21.465Z,51.57
2022-08-29T12:38:08.430Z,50.06
2022-08-29T12:41:12.584Z,48.92
2022-08-29T12:44:03.789Z,49.18
2022-08-29T12:46:41.852Z,48.51
2022-08-29T12:49:32.499Z,46.82
2022-08-29T12:52:10.815Z,46.08
2022-08-29T12:54:42.247Z,46.89
2022-08-29T12:57:25.654Z,45.58
2022-08-29T12:59:54.224Z,42.30
2022-08-29T13:02:37.108Z,44.38
2022-08-29T13:05:29.239Z,43.95
2022-08-29T13:08:13.077Z,43.40
2022-08-29T13:11:05.511Z,42.38
2022-08-29T13:13:34.312Z,42.10
2022-08-29T13:16:04.998Z,42.61
2022-08-29T13:18:59.844Z,41.38
2022-08-29T13:21:35.908Z,41.12
2022-08-29T13:24:21.095Z,41.42
2022-08-29T13:27:06.031Z,41.58
2022-08-29T13:29:43.016Z,41.74
2022-08-29T13:32:27.075Z,41.63
2022-08-29T13:35:21.249Z,42.48
2022-08-29T13:38:33.745Z,41.61
2022-08-29T13:41:01.957Z,43.05
2022-08-29T13:43:45.915Z,42.53
2022-08-29T13:46:33.733Z,42.10
2022-08-29T13:49:05.745Z,43.28
2022-08-29T13:51:36.225Z,43.76
2022-08-29T13:54:06.081Z,42.06
2022-08-29T13:56:44.497Z,40.67
2022-08-29T13:59:12.010Z,40.09
2022-08-29T14:02:10.953Z,40.44
2022-08-29T14:04:38.578Z,40.96
2022-08-29T14:07:10.026Z,41.71
2022-08-29T14:09:42.369Z,41.12
2022-08-29T14:12:11.038Z,42.39
2022-08-29T14:14:41.239Z,41.69
2022-08-29T14:17:18.131Z,40.87
2022-08-29T14:19:47.591Z,41.91
2022-08-29T14:22:16.379Z,41.74
2022-08-29T14:24:52.701Z,42.12
2022-08-29T14:27:22.097Z,43.20
2022-08-29T14:29:51.729Z,44.44
2022-08-29T14:32:21.307Z,45.81
2022-08-29T14:34:52.351Z,46.84
2022-08-29T14:37:25.626Z,46.95
2022-08-29T14:39:55.604Z,44.59
2022-08-29T14:42:26.124Z,44.68
2022-08-29T14:44:56.271Z,44.67
2022-08-29T14:47:24.977Z,44.19
2022-08-29T14:49:52.137Z,44.02
2022-08-29T14:52:20.742Z,43.89
2022-08-29T14:54:49.853Z,43.69
2022-08-29T14:57:17.014Z,43.90
2022-08-29T14:59:50.537Z,44.55
2022-08-29T15:02:21.049Z,44.86
2022-08-29T15:04:58.362Z,44.83
2022-08-29T15:07:26.673Z,45.33
2022-08-29T15:09:56.085Z,45.15
2022-08-29T15:12:28.193Z,43.77
2022-08-29T15:14:56.990Z,44.41
2022-08-29T15:17:26.440Z,43.89
2022-08-29T15:22:38.472Z,43.26
2022-08-29T15:25:10.951Z,43.22
2022-08-29T15:27:41.392Z,43.77
2022-08-29T15:30:09.786Z,43.48
2022-08-29T15:32:41.612Z,43.47
2022-08-29T15:35:14.293Z,43.57
2022-08-29T15:37:46.150Z,43.50
2022-08-29T15:40:14.929Z,42.77
2022-08-29T15:42:42.229Z,42.62
2022-08-29T15:45:22.823Z,43.75
2022-08-29T15:47:53.895Z,45.23
2022-08-29T15:50:22.700Z,46.71
2022-08-29T15:52:50.012Z,48.81
2022-08-29T15:55:17.225Z,50.28
2022-08-29T15:57:51.416Z,51.25
2022-08-29T16:00:30.525Z,51.37
2022-08-29T16:03:02.901Z,52.18
2022-08-29T16:05:32.684Z,52.13
2022-08-29T16:08:04.992Z,53.82
2022-08-29T16:10:34.838Z,54.39
2022-08-29T16:13:02.767Z,55.15
2022-08-29T16:15:33.996Z,55.48
2022-08-29T16:18:02.797Z,56.36
2022-08-29T16:20:31.810Z,56.40
2022-08-29T16:23:08.549Z,57.13
2022-08-29T16:25:36.672Z,57.08
2022-08-29T16:28:06.124Z,57.12
2022-08-29T16:30:34.809Z,56.52
2022-08-29T16:33:05.959Z,56.12
2022-08-29T16:35:35.034Z,55.80
2022-08-29T16:38:03.450Z,57.17
2022-08-29T16:40:32.779Z,57.96
2022-08-29T16:43:03.847Z,58.76
2022-08-29T16:45:34.848Z,59.01
2022-08-29T16:48:15.749Z,58.39
2022-08-29T16:50:47.588Z,58.21
2022-08-29T16:53:15.556Z,58.17
2022-08-29T16:55:49.412Z,58.11
2022-08-29T16:58:36.776Z,56.66
2022-08-29T17:01:07.168Z,56.82
2022-08-29T17:03:36.816Z,55.86
2022-08-29T17:06:04.786Z,56.08
2022-08-29T17:08:35.799Z,56.46
2022-08-29T17:11:05.830Z,56.91
2022-08-29T17:13:36.771Z,56.97
2022-08-29T17:16:06.632Z,56.74
2022-08-29T17:18:35.869Z,55.92
2022-08-29T17:21:06.020Z,56.77
2022-08-29T17:23:38.618Z,56.25
2022-08-29T17:26:10.772Z,56.66
2022-08-29T17:28:41.264Z,56.99
2022-08-29T17:31:09.746Z,57.30
2022-08-29T17:33:37.305Z,58.32
2022-08-29T17:36:07.385Z,59.29
2022-08-29T17:38:35.534Z,59.45
2022-08-29T17:41:15.353Z,60.11
2022-08-29T17:43:49.779Z,60.42
2022-08-29T17:46:22.793Z,60.44
2022-08-29T17:48:50.328Z,60.29
2022-08-29T17:51:27.445Z,60.16
2022-08-29T17:53:57.175Z,60.23
2022-08-29T17:56:46.025Z,59.96
2022-08-29T17:59:23.320Z,60.01
2022-08-29T18:01:54.357Z,60.14
2022-08-29T18:04:24.552Z,59.89
2022-08-29T18:06:57.597Z,60.12
2022-08-29T18:09:26.096Z,60.10
2022-08-29T18:11:55.528Z,60.12
2022-08-29T18:14:25.816Z,60.56
2022-08-29T18:16:56.711Z,61.00
2022-08-29T18:19:27.743Z,60.69
2022-08-29T18:21:56.911Z,61.01
2022-08-29T18:24:25.630Z,60.99
2022-08-29T18:26:54.262Z,61.51
2022-08-29T18:29:21.922Z,60.69
2022-08-29T18:31:52.609Z,61.06
2022-08-29T18:34:22.527Z,61.18
2022-08-29T18:36:49.592Z,61.93
2022-08-29T18:39:17.530Z,62.12
2022-08-29T18:41:46.251Z,62.59
2022-08-29T18:44:15.635Z,63.01
2022-08-29T18:46:48.065Z,63.39
2022-08-29T18:49:20.283Z,63.26
2022-08-29T18:51:50.192Z,63.00
2022-08-29T18:54:19.346Z,62.88
2022-08-29T18:56:50.429Z,62.96
2022-08-29T18:59:21.221Z,62.93
2022-08-29T19:01:50.874Z,62.93
2022-08-29T19:04:24.788Z,63.33
2022-08-29T19:06:53.535Z,63.52
2022-08-29T19:09:21.832Z,63.73
2022-08-29T19:11:49.730Z,64.23
2022-08-29T19:14:27.514Z,64.63
2022-08-29T19:17:00.949Z,64.96
2022-08-29T19:19:57.619Z,64.68
2022-08-29T19:22:27.218Z,64.72
2022-08-29T19:24:56.291Z,65.08
2022-08-29T19:27:42.191Z,65.31
2022-08-29T19:30:17.099Z,65.75
2022-08-29T19:32:54.221Z,66.12
2022-08-29T19:35:22.735Z,66.58
2022-08-29T19:37:50.170Z,66.49
2022-08-29T19:40:20.504Z,66.09
2022-08-29T19:42:51.554Z,66.07
2022-08-29T19:45:20.773Z,66.35
2022-08-29T19:47:50.495Z,66.33
2022-08-29T19:50:27.213Z,66.35
2022-08-29T19:52:54.899Z,66.39
2022-08-29T19:55:24.499Z,66.96
2022-08-29T19:57:51.813Z,68.26
2022-08-29T20:00:26.788Z,68.89
2022-08-29T20:02:59.138Z,68.69
2022-08-29T20:05:27.366Z,68.12
2022-08-29T20:07:56.639Z,68.09
2022-08-29T20:10:27.555Z,68.68
2022-08-29T20:13:00.091Z,69.52
2022-08-29T20:15:31.821Z,70.36
2022-08-29T20:18:02.863Z,70.22
2022-08-29T20:20:36.650Z,71.19
2022-08-29T20:23:07.945Z,71.29
2022-08-29T20:25:36.843Z,71.96
2022-08-29T20:28:07.308Z,72.27
2022-08-29T20:30:36.825Z,71.91
2022-08-29T20:33:05.082Z,71.85
2022-08-29T20:35:56.368Z,71.79
2022-08-29T20:38:25.850Z,71.56
2022-08-29T20:40:57.067Z,71.66
2022-08-29T20:43:24.499Z,72.20
2022-08-29T20:45:51.471Z,72.53
2022-08-29T20:48:20.092Z,72.42
2022-08-29T20:51:00.252Z,72.14
2022-08-29T20:53:31.760Z,72.30
2022-08-29T20:56:01.374Z,72.02
2022-08-29T20:58:30.871Z,72.93
2022-08-29T21:01:02.911Z,73.61
2022-08-29T21:03:50.173Z,73.81
2022-08-29T21:06:22.277Z,74.21
2022-08-29T21:08:49.831Z,74.44
2022-08-29T21:11:18.585Z,74.80
2022-08-29T21:13:49.051Z,74.81
2022-08-29T21:16:21.420Z,75.24
2022-08-29T21:18:55.621Z,75.52
2022-08-29T21:21:26.516Z,75.60
2022-08-29T21:23:56.475Z,75.40
2022-08-29T21:26:25.926Z,75.61
2022-08-29T21:28:56.036Z,75.63
2022-08-29T21:31:25.673Z,75.49
2022-08-29T21:33:53.009Z,75.28
2022-08-29T21:36:26.426Z,75.08
2022-08-29T21:38:57.837Z,75.44
2022-08-29T21:41:28.955Z,75.81
2022-08-29T21:43:58.883Z,76.16
2022-08-29T21:46:34.653Z,76.33
2022-08-29T21:49:06.119Z,76.93
2022-08-29T21:51:37.294Z,76.96
2022-08-29T21:54:15.281Z,77.24
2022-08-29T21:56:52.404Z,78.05
2022-08-29T21:59:30.289Z,77.73
2022-08-29T22:02:06.461Z,77.24
2022-08-29T22:04:37.099Z,77.18
2022-08-29T22:07:06.016Z,77.66
2022-08-29T22:09:36.257Z,78.60
2022-08-29T22:12:06.651Z,79.43
2022-08-29T22:14:57.869Z,79.32
2022-08-29T22:17:25.911Z,79.32
2022-08-29T22:19:56.181Z,79.74
2022-08-29T22:22:26.513Z,79.51
2022-08-29T22:24:56.088Z,79.29
2022-08-29T22:27:26.216Z,79.22
2022-08-29T22:29:55.811Z,78.97
2022-08-29T22:32:26.649Z,79.35
2022-08-29T22:35:07.451Z,79.38
2022-08-29T22:37:37.792Z,79.57
2022-08-29T22:40:10.391Z,79.76
2022-08-29T22:42:38.378Z,79.80
2022-08-29T22:45:09.046Z,79.46
2022-08-29T22:47:41.999Z,79.46
2022-08-29T22:50:19.951Z,79.37
2022-08-29T22:52:51.066Z,79.44
2022-08-29T22:57:51.119Z,79.88
2022-08-29T23:00:22.554Z,79.71
2022-08-29T23:02:52.229Z,79.59
2022-08-29T23:05:21.431Z,79.54
2022-08-29T23:07:48.997Z,79.26
2022-08-29T23:10:18.829Z,79.60
2022-08-29T23:12:46.357Z,80.33
2022-08-29T23:15:16.967Z,80.88
2022-08-29T23:17:45.459Z,80.74
2022-08-29T23:20:19.164Z,80.57
2022-08-29T23:22:46.980Z,81.05
2022-08-29T23:25:18.090Z,81.39
2022-08-29T23:27:46.220Z,81.87
2022-08-29T23:30:15.774Z,81.67
2022-08-29T23:32:45.777Z,81.69
2022-08-29T23:35:17.311Z,81.94
2022-08-29T23:37:45.848Z,81.18
2022-08-29T23:40:16.124Z,80.81
2022-08-29T23:42:43.649Z,80.22
2022-08-29T23:45:14.962Z,80.58
2022-08-29T23:47:45.359Z,80.00
2022-08-29T23:50:16.539Z,79.53
2022-08-29T23:52:46.247Z,79.61
2022-08-29T23:55:16.788Z,79.70
2022-08-29T23:57:43.914Z,79.82
